sensor_id;sensor_type;location;lat;lon;timestamp;temperature;humidity
45104;DHT22;30865;51.288;4.572;2023-08-06T00:02:04;16.40;99.90
45104;DHT22;30865;51.288;4.572;2023-08-06T00:04:29;16.40;99.90
45104;DHT22;30865;51.288;4.572;2023-08-06T00:06:55;16.40;99.90
45104;DHT22;30865;51.288;4.572;2023-08-06T00:09:20;16.40;99.90
45104;DHT22;30865;51.288;4.572;2023-08-06T00:11:46;16.40;99.90
45104;DHT22;30865;51.288;4.572;2023-08-06T00:14:12;16.30;99.90
45104;DHT22;30865;51.288;4.572;2023-08-06T00:16:42;16.20;99.90
45104;DHT22;30865;51.288;4.572;2023-08-06T00:19:08;16.20;99.90
45104;DHT22;30865;51.288;4.572;2023-08-06T00:21:33;16.20;99.90
45104;DHT22;30865;51.288;4.572;2023-08-06T00:23:59;16.10;99.90
45104;DHT22;30865;51.288;4.572;2023-08-06T00:26:24;16.10;99.90
45104;DHT22;30865;51.288;4.572;2023-08-06T00:28:50;16.00;99.90
45104;DHT22;30865;51.288;4.572;2023-08-06T00:31:15;16.00;99.90
45104;DHT22;30865;51.288;4.572;2023-08-06T00:33:40;15.90;99.90
45104;DHT22;30865;51.288;4.572;2023-08-06T00:36:06;15.90;99.90
45104;DHT22;30865;51.288;4.572;2023-08-06T00:38:31;15.80;99.90
45104;DHT22;30865;51.288;4.572;2023-08-06T00:40:57;15.80;99.90
45104;DHT22;30865;51.288;4.572;2023-08-06T00:43:22;15.80;99.90
45104;DHT22;30865;51.288;4.572;2023-08-06T00:45:48;15.80;99.90
45104;DHT22;30865;51.288;4.572;2023-08-06T00:48:14;15.70;99.90
45104;DHT22;30865;51.288;4.572;2023-08-06T00:50:40;15.70;99.90
45104;DHT22;30865;51.288;4.572;2023-08-06T00:53:05;15.70;99.90
45104;DHT22;30865;51.288;4.572;2023-08-06T00:55:35;15.80;99.90
45104;DHT22;30865;51.288;4.572;2023-08-06T00:58:01;15.80;99.90
45104;DHT22;30865;51.288;4.572;2023-08-06T01:00:27;15.70;99.90
45104;DHT22;30865;51.288;4.572;2023-08-06T01:02:53;15.70;99.90
45104;DHT22;30865;51.288;4.572;2023-08-06T01:05:21;15.60;99.90
45104;DHT22;30865;51.288;4.572;2023-08-06T01:13:48;15.50;99.90
45104;DHT22;30865;51.288;4.572;2023-08-06T01:16:19;15.50;99.90
45104;DHT22;30865;51.288;4.572;2023-08-06T01:18:47;15.40;99.90
45104;DHT22;30865;51.288;4.572;2023-08-06T01:21:15;15.40;99.90
45104;DHT22;30865;51.288;4.572;2023-08-06T01:23:42;15.40;99.90
45104;DHT22;30865;51.288;4.572;2023-08-06T01:28:51;15.30;99.90
45104;DHT22;30865;51.288;4.572;2023-08-06T01:31:30;15.30;99.90
45104;DHT22;30865;51.288;4.572;2023-08-06T01:33:58;15.30;99.90
45104;DHT22;30865;51.288;4.572;2023-08-06T01:36:24;15.30;99.90
45104;DHT22;30865;51.288;4.572;2023-08-06T01:38:52;15.30;99.90
45104;DHT22;30865;51.288;4.572;2023-08-06T01:41:18;15.20;99.90
45104;DHT22;30865;51.288;4.572;2023-08-06T01:43:43;15.30;99.90
45104;DHT22;30865;51.288;4.572;2023-08-06T01:46:09;15.30;99.90
45104;DHT22;30865;51.288;4.572;2023-08-06T01:48:34;15.40;99.90
45104;DHT22;30865;51.288;4.572;2023-08-06T01:51:00;15.50;99.90
45104;DHT22;30865;51.288;4.572;2023-08-06T01:53:26;15.50;99.90
45104;DHT22;30865;51.288;4.572;2023-08-06T01:55:51;15.50;99.90
45104;DHT22;30865;51.288;4.572;2023-08-06T01:58:17;15.40;99.90
45104;DHT22;30865;51.288;4.572;2023-08-06T02:00:42;15.50;99.90
45104;DHT22;30865;51.288;4.572;2023-08-06T02:03:07;15.50;99.90
45104;DHT22;30865;51.288;4.572;2023-08-06T02:05:33;15.50;99.90
45104;DHT22;30865;51.288;4.572;2023-08-06T02:07:58;15.50;99.90
45104;DHT22;30865;51.288;4.572;2023-08-06T02:10:24;15.40;99.90
45104;DHT22;30865;51.288;4.572;2023-08-06T02:12:49;15.40;99.90
45104;DHT22;30865;51.288;4.572;2023-08-06T02:15:15;15.40;99.90
45104;DHT22;30865;51.288;4.572;2023-08-06T02:17:40;15.40;99.90
45104;DHT22;30865;51.288;4.572;2023-08-06T02:20:06;15.30;99.90
45104;DHT22;30865;51.288;4.572;2023-08-06T02:22:32;15.20;99.90
45104;DHT22;30865;51.288;4.572;2023-08-06T02:24:58;15.10;99.90
45104;DHT22;30865;51.288;4.572;2023-08-06T02:27:24;15.00;99.90
45104;DHT22;30865;51.288;4.572;2023-08-06T02:29:50;15.00;99.90
45104;DHT22;30865;51.288;4.572;2023-08-06T02:32:15;15.00;99.90
45104;DHT22;30865;51.288;4.572;2023-08-06T02:34:41;15.00;99.90
45104;DHT22;30865;51.288;4.572;2023-08-06T02:37:07;14.90;99.90
45104;DHT22;30865;51.288;4.572;2023-08-06T02:39:32;14.90;99.90
45104;DHT22;30865;51.288;4.572;2023-08-06T02:41:59;14.80;99.90
45104;DHT22;30865;51.288;4.572;2023-08-06T02:44:27;14.90;99.90
45104;DHT22;30865;51.288;4.572;2023-08-06T02:46:53;14.80;99.90
45104;DHT22;30865;51.288;4.572;2023-08-06T02:49:18;14.90;99.90
45104;DHT22;30865;51.288;4.572;2023-08-06T02:51:47;14.80;99.90
45104;DHT22;30865;51.288;4.572;2023-08-06T02:54:12;14.80;99.90
45104;DHT22;30865;51.288;4.572;2023-08-06T02:56:38;14.80;99.90
45104;DHT22;30865;51.288;4.572;2023-08-06T02:59:03;14.80;99.90
45104;DHT22;30865;51.288;4.572;2023-08-06T03:01:29;14.70;99.90
45104;DHT22;30865;51.288;4.572;2023-08-06T03:03:54;14.70;99.90
45104;DHT22;30865;51.288;4.572;2023-08-06T03:06:20;14.70;99.90
45104;DHT22;30865;51.288;4.572;2023-08-06T03:08:45;14.60;99.90
45104;DHT22;30865;51.288;4.572;2023-08-06T03:11:11;14.60;99.90
45104;DHT22;30865;51.288;4.572;2023-08-06T03:13:36;14.60;99.90
45104;DHT22;30865;51.288;4.572;2023-08-06T03:16:02;14.60;99.90
45104;DHT22;30865;51.288;4.572;2023-08-06T03:18:27;14.70;99.90
45104;DHT22;30865;51.288;4.572;2023-08-06T03:20:53;14.70;99.90
45104;DHT22;30865;51.288;4.572;2023-08-06T03:23:19;14.70;99.90
45104;DHT22;30865;51.288;4.572;2023-08-06T03:25:45;14.80;99.90
45104;DHT22;30865;51.288;4.572;2023-08-06T03:28:10;14.80;99.90
45104;DHT22;30865;51.288;4.572;2023-08-06T03:30:36;14.90;99.90
45104;DHT22;30865;51.288;4.572;2023-08-06T03:33:01;14.90;99.90
45104;DHT22;30865;51.288;4.572;2023-08-06T03:35:27;14.90;99.90
45104;DHT22;30865;51.288;4.572;2023-08-06T03:37:53;14.90;99.90
45104;DHT22;30865;51.288;4.572;2023-08-06T03:40:18;15.00;99.90
45104;DHT22;30865;51.288;4.572;2023-08-06T03:42:44;15.00;99.90
45104;DHT22;30865;51.288;4.572;2023-08-06T03:45:12;15.00;99.90
45104;DHT22;30865;51.288;4.572;2023-08-06T03:47:38;15.00;99.90
45104;DHT22;30865;51.288;4.572;2023-08-06T03:50:03;15.00;99.90
45104;DHT22;30865;51.288;4.572;2023-08-06T03:52:30;15.10;99.90
45104;DHT22;30865;51.288;4.572;2023-08-06T03:54:56;15.00;99.90
45104;DHT22;30865;51.288;4.572;2023-08-06T03:57:21;14.90;99.90
45104;DHT22;30865;51.288;4.572;2023-08-06T03:59:47;14.90;99.90
45104;DHT22;30865;51.288;4.572;2023-08-06T04:02:12;14.90;99.90
45104;DHT22;30865;51.288;4.572;2023-08-06T04:04:38;14.90;99.90
45104;DHT22;30865;51.288;4.572;2023-08-06T04:07:03;14.90;99.90
45104;DHT22;30865;51.288;4.572;2023-08-06T04:09:29;14.90;99.90
45104;DHT22;30865;51.288;4.572;2023-08-06T04:11:55;14.90;99.90
45104;DHT22;30865;51.288;4.572;2023-08-06T04:14:21;14.80;99.90
45104;DHT22;30865;51.288;4.572;2023-08-06T04:16:46;14.90;99.90
45104;DHT22;30865;51.288;4.572;2023-08-06T04:19:12;14.80;99.90
45104;DHT22;30865;51.288;4.572;2023-08-06T04:21:37;14.80;99.90
45104;DHT22;30865;51.288;4.572;2023-08-06T04:24:03;14.80;99.90
45104;DHT22;30865;51.288;4.572;2023-08-06T04:26:28;14.80;99.90
45104;DHT22;30865;51.288;4.572;2023-08-06T04:28:54;14.80;99.90
45104;DHT22;30865;51.288;4.572;2023-08-06T04:31:19;14.90;99.90
45104;DHT22;30865;51.288;4.572;2023-08-06T04:33:45;14.90;99.90
45104;DHT22;30865;51.288;4.572;2023-08-06T04:36:12;14.80;99.90
45104;DHT22;30865;51.288;4.572;2023-08-06T04:38:37;14.80;99.90
45104;DHT22;30865;51.288;4.572;2023-08-06T04:41:03;14.80;99.90
45104;DHT22;30865;51.288;4.572;2023-08-06T04:43:29;14.80;99.90
45104;DHT22;30865;51.288;4.572;2023-08-06T04:45:55;14.90;99.90
45104;DHT22;30865;51.288;4.572;2023-08-06T04:48:22;14.90;99.90
45104;DHT22;30865;51.288;4.572;2023-08-06T04:50:49;14.90;99.90
45104;DHT22;30865;51.288;4.572;2023-08-06T04:53:15;14.90;99.90
45104;DHT22;30865;51.288;4.572;2023-08-06T04:55:41;14.90;99.90
45104;DHT22;30865;51.288;4.572;2023-08-06T04:58:06;14.80;99.90
45104;DHT22;30865;51.288;4.572;2023-08-06T05:00:33;14.90;99.90
45104;DHT22;30865;51.288;4.572;2023-08-06T05:03:02;14.80;99.90
45104;DHT22;30865;51.288;4.572;2023-08-06T05:05:28;14.90;99.90
45104;DHT22;30865;51.288;4.572;2023-08-06T05:07:55;15.00;99.90
45104;DHT22;30865;51.288;4.572;2023-08-06T05:10:21;15.00;99.90
45104;DHT22;30865;51.288;4.572;2023-08-06T05:12:47;15.10;99.90
45104;DHT22;30865;51.288;4.572;2023-08-06T05:15:12;15.10;99.90
45104;DHT22;30865;51.288;4.572;2023-08-06T05:17:38;15.20;99.90
45104;DHT22;30865;51.288;4.572;2023-08-06T05:20:03;15.20;99.90
45104;DHT22;30865;51.288;4.572;2023-08-06T05:22:29;15.20;99.90
45104;DHT22;30865;51.288;4.572;2023-08-06T05:24:54;15.30;99.90
45104;DHT22;30865;51.288;4.572;2023-08-06T05:27:20;15.40;99.90
45104;DHT22;30865;51.288;4.572;2023-08-06T05:29:48;15.40;99.90
45104;DHT22;30865;51.288;4.572;2023-08-06T05:32:13;15.40;99.90
45104;DHT22;30865;51.288;4.572;2023-08-06T05:34:39;15.30;99.90
45104;DHT22;30865;51.288;4.572;2023-08-06T05:37:05;15.40;99.90
45104;DHT22;30865;51.288;4.572;2023-08-06T05:39:30;15.50;99.90
45104;DHT22;30865;51.288;4.572;2023-08-06T05:41:56;15.70;99.90
45104;DHT22;30865;51.288;4.572;2023-08-06T05:44:23;15.70;99.90
45104;DHT22;30865;51.288;4.572;2023-08-06T05:46:49;15.80;99.90
45104;DHT22;30865;51.288;4.572;2023-08-06T05:49:14;15.90;99.90
45104;DHT22;30865;51.288;4.572;2023-08-06T05:51:41;16.00;99.90
45104;DHT22;30865;51.288;4.572;2023-08-06T05:54:07;16.00;99.90
45104;DHT22;30865;51.288;4.572;2023-08-06T05:56:32;16.10;99.90
45104;DHT22;30865;51.288;4.572;2023-08-06T05:58:58;16.20;99.90
45104;DHT22;30865;51.288;4.572;2023-08-06T06:01:25;16.10;99.90
45104;DHT22;30865;51.288;4.572;2023-08-06T06:03:51;15.90;99.90
45104;DHT22;30865;51.288;4.572;2023-08-06T06:06:16;15.90;99.90
45104;DHT22;30865;51.288;4.572;2023-08-06T06:08:44;15.90;99.90
45104;DHT22;30865;51.288;4.572;2023-08-06T06:11:09;15.80;99.90
45104;DHT22;30865;51.288;4.572;2023-08-06T06:13:34;15.90;99.90
45104;DHT22;30865;51.288;4.572;2023-08-06T06:16:00;15.90;99.90
45104;DHT22;30865;51.288;4.572;2023-08-06T06:18:25;15.80;99.90
45104;DHT22;30865;51.288;4.572;2023-08-06T06:20:51;15.80;99.90
45104;DHT22;30865;51.288;4.572;2023-08-06T06:23:16;15.80;99.90
45104;DHT22;30865;51.288;4.572;2023-08-06T06:25:49;15.80;99.90
45104;DHT22;30865;51.288;4.572;2023-08-06T06:28:17;15.90;99.90
45104;DHT22;30865;51.288;4.572;2023-08-06T06:30:42;16.00;99.90
45104;DHT22;30865;51.288;4.572;2023-08-06T06:33:08;15.80;99.90
45104;DHT22;30865;51.288;4.572;2023-08-06T06:35:33;15.70;99.90
45104;DHT22;30865;51.288;4.572;2023-08-06T06:37:59;15.60;99.90
45104;DHT22;30865;51.288;4.572;2023-08-06T06:40:25;15.70;99.90
45104;DHT22;30865;51.288;4.572;2023-08-06T06:42:51;15.70;99.90
45104;DHT22;30865;51.288;4.572;2023-08-06T06:45:16;15.70;99.90
45104;DHT22;30865;51.288;4.572;2023-08-06T06:47:42;15.70;99.90
45104;DHT22;30865;51.288;4.572;2023-08-06T06:50:08;15.70;99.90
45104;DHT22;30865;51.288;4.572;2023-08-06T06:52:34;15.70;99.90
45104;DHT22;30865;51.288;4.572;2023-08-06T06:55:00;15.70;99.90
45104;DHT22;30865;51.288;4.572;2023-08-06T06:57:25;15.80;99.90
45104;DHT22;30865;51.288;4.572;2023-08-06T06:59:51;15.80;99.90
45104;DHT22;30865;51.288;4.572;2023-08-06T07:02:16;15.80;99.90
45104;DHT22;30865;51.288;4.572;2023-08-06T07:04:42;15.80;99.90
45104;DHT22;30865;51.288;4.572;2023-08-06T07:07:07;15.70;99.90
45104;DHT22;30865;51.288;4.572;2023-08-06T07:09:33;15.70;99.90
45104;DHT22;30865;51.288;4.572;2023-08-06T07:11:58;15.60;99.90
45104;DHT22;30865;51.288;4.572;2023-08-06T07:14:25;15.70;99.90
45104;DHT22;30865;51.288;4.572;2023-08-06T07:16:51;15.60;99.90
45104;DHT22;30865;51.288;4.572;2023-08-06T07:19:16;15.60;99.90
45104;DHT22;30865;51.288;4.572;2023-08-06T07:21:42;15.70;99.90
45104;DHT22;30865;51.288;4.572;2023-08-06T07:24:07;15.80;99.90
45104;DHT22;30865;51.288;4.572;2023-08-06T07:26:33;15.50;99.90
45104;DHT22;30865;51.288;4.572;2023-08-06T07:28:58;15.50;99.90
45104;DHT22;30865;51.288;4.572;2023-08-06T07:31:24;15.50;99.90
45104;DHT22;30865;51.288;4.572;2023-08-06T07:33:49;15.40;99.90
45104;DHT22;30865;51.288;4.572;2023-08-06T07:36:15;15.20;99.90
45104;DHT22;30865;51.288;4.572;2023-08-06T07:38:41;15.10;99.90
45104;DHT22;30865;51.288;4.572;2023-08-06T07:41:06;15.10;99.90
45104;DHT22;30865;51.288;4.572;2023-08-06T07:43:32;15.20;99.90
45104;DHT22;30865;51.288;4.572;2023-08-06T07:45:58;15.30;99.90
45104;DHT22;30865;51.288;4.572;2023-08-06T07:48:25;15.20;99.90
45104;DHT22;30865;51.288;4.572;2023-08-06T07:50:52;15.20;99.90
45104;DHT22;30865;51.288;4.572;2023-08-06T07:53:20;15.30;99.90
45104;DHT22;30865;51.288;4.572;2023-08-06T07:55:49;15.30;99.90
45104;DHT22;30865;51.288;4.572;2023-08-06T07:58:14;15.20;99.90
45104;DHT22;30865;51.288;4.572;2023-08-06T08:00:40;15.20;99.90
45104;DHT22;30865;51.288;4.572;2023-08-06T08:03:07;15.30;99.90
45104;DHT22;30865;51.288;4.572;2023-08-06T08:05:33;15.30;99.90
45104;DHT22;30865;51.288;4.572;2023-08-06T08:07:58;15.50;99.90
45104;DHT22;30865;51.288;4.572;2023-08-06T08:10:24;15.60;99.90
45104;DHT22;30865;51.288;4.572;2023-08-06T08:12:49;15.70;99.90
45104;DHT22;30865;51.288;4.572;2023-08-06T08:15:15;15.80;99.90
45104;DHT22;30865;51.288;4.572;2023-08-06T08:17:40;15.80;99.90
45104;DHT22;30865;51.288;4.572;2023-08-06T08:20:06;15.70;99.90
45104;DHT22;30865;51.288;4.572;2023-08-06T08:22:32;15.80;99.90
45104;DHT22;30865;51.288;4.572;2023-08-06T08:24:57;15.80;99.90
45104;DHT22;30865;51.288;4.572;2023-08-06T08:27:23;15.80;99.90
45104;DHT22;30865;51.288;4.572;2023-08-06T08:29:48;15.80;99.90
45104;DHT22;30865;51.288;4.572;2023-08-06T08:32:14;15.70;99.90
45104;DHT22;30865;51.288;4.572;2023-08-06T08:34:39;15.60;99.90
45104;DHT22;30865;51.288;4.572;2023-08-06T08:37:05;15.70;99.90
45104;DHT22;30865;51.288;4.572;2023-08-06T08:39:31;15.80;99.90
45104;DHT22;30865;51.288;4.572;2023-08-06T08:41:57;15.90;99.90
45104;DHT22;30865;51.288;4.572;2023-08-06T08:44:22;16.00;99.90
45104;DHT22;30865;51.288;4.572;2023-08-06T08:46:50;16.10;99.90
45104;DHT22;30865;51.288;4.572;2023-08-06T08:49:16;16.20;99.90
45104;DHT22;30865;51.288;4.572;2023-08-06T08:51:43;16.10;99.90
45104;DHT22;30865;51.288;4.572;2023-08-06T08:54:10;16.10;99.90
45104;DHT22;30865;51.288;4.572;2023-08-06T08:56:38;16.10;99.90
45104;DHT22;30865;51.288;4.572;2023-08-06T08:59:04;16.10;99.90
45104;DHT22;30865;51.288;4.572;2023-08-06T09:01:29;16.30;99.90
45104;DHT22;30865;51.288;4.572;2023-08-06T09:03:56;16.20;99.90
45104;DHT22;30865;51.288;4.572;2023-08-06T09:06:23;16.00;99.90
45104;DHT22;30865;51.288;4.572;2023-08-06T09:09:02;16.10;99.90
45104;DHT22;30865;51.288;4.572;2023-08-06T09:11:31;16.00;99.90
45104;DHT22;30865;51.288;4.572;2023-08-06T09:14:06;15.90;99.90
45104;DHT22;30865;51.288;4.572;2023-08-06T09:16:34;16.10;99.90
45104;DHT22;30865;51.288;4.572;2023-08-06T09:19:10;16.20;99.90
45104;DHT22;30865;51.288;4.572;2023-08-06T09:21:41;16.20;99.90
45104;DHT22;30865;51.288;4.572;2023-08-06T09:24:11;16.10;99.90
45104;DHT22;30865;51.288;4.572;2023-08-06T09:26:41;16.00;99.90
45104;DHT22;30865;51.288;4.572;2023-08-06T09:29:08;16.20;99.90
45104;DHT22;30865;51.288;4.572;2023-08-06T09:31:44;16.40;99.90
45104;DHT22;30865;51.288;4.572;2023-08-06T09:34:22;16.30;99.90
45104;DHT22;30865;51.288;4.572;2023-08-06T09:36:52;16.50;99.90
45104;DHT22;30865;51.288;4.572;2023-08-06T09:39:26;16.70;99.90
45104;DHT22;30865;51.288;4.572;2023-08-06T09:41:56;16.60;99.90
45104;DHT22;30865;51.288;4.572;2023-08-06T09:44:22;16.50;99.90
45104;DHT22;30865;51.288;4.572;2023-08-06T09:46:52;16.40;99.90
45104;DHT22;30865;51.288;4.572;2023-08-06T09:49:19;16.40;99.90
45104;DHT22;30865;51.288;4.572;2023-08-06T09:51:46;16.50;99.90
45104;DHT22;30865;51.288;4.572;2023-08-06T09:54:16;16.70;99.90
45104;DHT22;30865;51.288;4.572;2023-08-06T09:56:42;17.00;99.90
45104;DHT22;30865;51.288;4.572;2023-08-06T09:59:08;17.00;99.90
45104;DHT22;30865;51.288;4.572;2023-08-06T10:01:35;17.00;99.90
45104;DHT22;30865;51.288;4.572;2023-08-06T10:04:02;17.00;99.90
45104;DHT22;30865;51.288;4.572;2023-08-06T10:06:29;16.90;99.90
45104;DHT22;30865;51.288;4.572;2023-08-06T10:08:55;17.00;99.90
45104;DHT22;30865;51.288;4.572;2023-08-06T10:11:23;17.00;99.90
45104;DHT22;30865;51.288;4.572;2023-08-06T10:14:09;17.00;99.90
45104;DHT22;30865;51.288;4.572;2023-08-06T10:16:36;17.00;99.90
45104;DHT22;30865;51.288;4.572;2023-08-06T10:19:04;16.70;99.90
45104;DHT22;30865;51.288;4.572;2023-08-06T10:21:33;16.60;99.90
45104;DHT22;30865;51.288;4.572;2023-08-06T10:23:59;16.50;99.90
45104;DHT22;30865;51.288;4.572;2023-08-06T10:26:28;16.40;99.90
45104;DHT22;30865;51.288;4.572;2023-08-06T10:28:54;16.20;99.90
45104;DHT22;30865;51.288;4.572;2023-08-06T10:31:43;16.30;99.90
45104;DHT22;30865;51.288;4.572;2023-08-06T10:34:05;16.30;99.90
45104;DHT22;30865;51.288;4.572;2023-08-06T10:36:32;16.10;99.90
45104;DHT22;30865;51.288;4.572;2023-08-06T10:38:58;16.00;99.90
45104;DHT22;30865;51.288;4.572;2023-08-06T10:41:29;16.20;99.90
45104;DHT22;30865;51.288;4.572;2023-08-06T10:44:07;16.20;99.90
45104;DHT22;30865;51.288;4.572;2023-08-06T10:46:36;16.50;99.90
45104;DHT22;30865;51.288;4.572;2023-08-06T10:49:03;16.60;99.90
45104;DHT22;30865;51.288;4.572;2023-08-06T10:51:28;16.70;99.90
45104;DHT22;30865;51.288;4.572;2023-08-06T10:53:54;16.50;99.90
45104;DHT22;30865;51.288;4.572;2023-08-06T10:56:22;16.60;99.90
45104;DHT22;30865;51.288;4.572;2023-08-06T10:58:49;16.40;99.90
45104;DHT22;30865;51.288;4.572;2023-08-06T11:01:15;16.40;99.90
45104;DHT22;30865;51.288;4.572;2023-08-06T11:03:45;16.50;99.90
45104;DHT22;30865;51.288;4.572;2023-08-06T11:06:11;16.60;99.90
45104;DHT22;30865;51.288;4.572;2023-08-06T11:08:48;16.30;99.90
45104;DHT22;30865;51.288;4.572;2023-08-06T11:11:15;16.50;99.90
45104;DHT22;30865;51.288;4.572;2023-08-06T11:13:46;16.30;99.90
45104;DHT22;30865;51.288;4.572;2023-08-06T11:16:19;16.30;99.90
45104;DHT22;30865;51.288;4.572;2023-08-06T11:18:46;16.30;99.90
45104;DHT22;30865;51.288;4.572;2023-08-06T11:21:12;16.50;99.90
45104;DHT22;30865;51.288;4.572;2023-08-06T11:23:39;16.40;99.90
45104;DHT22;30865;51.288;4.572;2023-08-06T11:26:04;16.40;99.90
45104;DHT22;30865;51.288;4.572;2023-08-06T11:28:30;16.30;99.90
45104;DHT22;30865;51.288;4.572;2023-08-06T11:30:56;16.20;99.90
45104;DHT22;30865;51.288;4.572;2023-08-06T11:33:23;16.00;99.90
45104;DHT22;30865;51.288;4.572;2023-08-06T11:35:54;16.10;99.90
45104;DHT22;30865;51.288;4.572;2023-08-06T11:38:20;16.10;99.90
45104;DHT22;30865;51.288;4.572;2023-08-06T11:40:45;16.20;99.90
45104;DHT22;30865;51.288;4.572;2023-08-06T11:43:12;16.30;99.90
45104;DHT22;30865;51.288;4.572;2023-08-06T11:45:38;16.30;99.90
45104;DHT22;30865;51.288;4.572;2023-08-06T11:48:04;16.50;99.90
45104;DHT22;30865;51.288;4.572;2023-08-06T11:50:30;16.50;99.90
45104;DHT22;30865;51.288;4.572;2023-08-06T11:52:57;16.30;99.90
45104;DHT22;30865;51.288;4.572;2023-08-06T11:55:24;16.20;99.90
45104;DHT22;30865;51.288;4.572;2023-08-06T11:57:50;16.30;99.90
45104;DHT22;30865;51.288;4.572;2023-08-06T12:00:16;16.20;99.90
45104;DHT22;30865;51.288;4.572;2023-08-06T12:02:47;15.60;99.90
45104;DHT22;30865;51.288;4.572;2023-08-06T12:05:15;16.10;99.90
45104;DHT22;30865;51.288;4.572;2023-08-06T12:07:44;15.90;99.90
45104;DHT22;30865;51.288;4.572;2023-08-06T12:10:10;15.70;99.90
45104;DHT22;30865;51.288;4.572;2023-08-06T12:12:36;15.70;99.90
45104;DHT22;30865;51.288;4.572;2023-08-06T12:15:03;15.70;99.90
45104;DHT22;30865;51.288;4.572;2023-08-06T12:17:29;15.70;99.90
45104;DHT22;30865;51.288;4.572;2023-08-06T12:19:54;15.70;99.90
45104;DHT22;30865;51.288;4.572;2023-08-06T12:22:20;15.60;99.90
45104;DHT22;30865;51.288;4.572;2023-08-06T12:24:46;15.60;99.90
45104;DHT22;30865;51.288;4.572;2023-08-06T12:27:13;15.70;99.90
45104;DHT22;30865;51.288;4.572;2023-08-06T12:29:42;15.70;99.90
45104;DHT22;30865;51.288;4.572;2023-08-06T12:32:11;15.70;99.90
45104;DHT22;30865;51.288;4.572;2023-08-06T12:34:38;15.70;99.90
45104;DHT22;30865;51.288;4.572;2023-08-06T12:37:04;15.90;99.90
45104;DHT22;30865;51.288;4.572;2023-08-06T12:39:30;15.90;99.90
45104;DHT22;30865;51.288;4.572;2023-08-06T12:41:56;15.90;99.90
45104;DHT22;30865;51.288;4.572;2023-08-06T12:44:23;16.00;99.90
45104;DHT22;30865;51.288;4.572;2023-08-06T12:46:49;15.90;99.90
45104;DHT22;30865;51.288;4.572;2023-08-06T12:49:15;16.00;99.90
45104;DHT22;30865;51.288;4.572;2023-08-06T12:51:40;16.10;99.90
45104;DHT22;30865;51.288;4.572;2023-08-06T12:54:06;16.20;99.90
45104;DHT22;30865;51.288;4.572;2023-08-06T12:56:31;16.50;99.90
45104;DHT22;30865;51.288;4.572;2023-08-06T12:58:57;16.40;99.90
45104;DHT22;30865;51.288;4.572;2023-08-06T13:01:22;16.50;99.90
45104;DHT22;30865;51.288;4.572;2023-08-06T13:03:48;16.50;99.90
45104;DHT22;30865;51.288;4.572;2023-08-06T13:06:13;16.50;99.90
45104;DHT22;30865;51.288;4.572;2023-08-06T13:08:39;16.70;99.90
45104;DHT22;30865;51.288;4.572;2023-08-06T13:11:05;16.50;99.90
45104;DHT22;30865;51.288;4.572;2023-08-06T13:13:30;16.50;99.90
45104;DHT22;30865;51.288;4.572;2023-08-06T13:15:56;16.60;99.90
45104;DHT22;30865;51.288;4.572;2023-08-06T13:18:21;16.60;99.90
45104;DHT22;30865;51.288;4.572;2023-08-06T13:20:47;16.80;99.90
45104;DHT22;30865;51.288;4.572;2023-08-06T13:23:14;17.10;99.90
45104;DHT22;30865;51.288;4.572;2023-08-06T13:25:42;17.00;99.90
45104;DHT22;30865;51.288;4.572;2023-08-06T13:28:08;16.90;99.90
45104;DHT22;30865;51.288;4.572;2023-08-06T13:30:33;17.00;99.90
45104;DHT22;30865;51.288;4.572;2023-08-06T13:33:01;16.90;99.90
45104;DHT22;30865;51.288;4.572;2023-08-06T13:35:26;16.90;99.90
45104;DHT22;30865;51.288;4.572;2023-08-06T13:37:52;16.90;99.90
45104;DHT22;30865;51.288;4.572;2023-08-06T13:40:18;17.00;99.90
45104;DHT22;30865;51.288;4.572;2023-08-06T13:42:43;17.20;99.90
45104;DHT22;30865;51.288;4.572;2023-08-06T13:45:09;17.20;99.90
45104;DHT22;30865;51.288;4.572;2023-08-06T13:47:35;17.10;99.90
45104;DHT22;30865;51.288;4.572;2023-08-06T13:50:00;16.90;99.90
45104;DHT22;30865;51.288;4.572;2023-08-06T13:52:30;17.00;99.90
45104;DHT22;30865;51.288;4.572;2023-08-06T13:54:55;16.90;99.90
45104;DHT22;30865;51.288;4.572;2023-08-06T13:57:21;16.80;99.90
45104;DHT22;30865;51.288;4.572;2023-08-06T13:59:46;16.70;99.90
45104;DHT22;30865;51.288;4.572;2023-08-06T14:02:12;16.70;99.90
45104;DHT22;30865;51.288;4.572;2023-08-06T14:04:37;16.70;99.90
45104;DHT22;30865;51.288;4.572;2023-08-06T14:07:04;16.80;99.90
45104;DHT22;30865;51.288;4.572;2023-08-06T14:09:29;16.90;99.90
45104;DHT22;30865;51.288;4.572;2023-08-06T14:11:55;16.80;99.90
45104;DHT22;30865;51.288;4.572;2023-08-06T14:14:20;16.70;99.90
45104;DHT22;30865;51.288;4.572;2023-08-06T14:16:54;16.90;99.90
45104;DHT22;30865;51.288;4.572;2023-08-06T14:19:20;16.80;99.90
45104;DHT22;30865;51.288;4.572;2023-08-06T14:21:46;16.80;99.90
45104;DHT22;30865;51.288;4.572;2023-08-06T14:24:11;16.90;99.90
45104;DHT22;30865;51.288;4.572;2023-08-06T14:26:37;16.90;99.90
45104;DHT22;30865;51.288;4.572;2023-08-06T14:29:02;17.00;99.90
45104;DHT22;30865;51.288;4.572;2023-08-06T14:31:28;17.00;99.90
45104;DHT22;30865;51.288;4.572;2023-08-06T14:33:53;17.00;99.90
45104;DHT22;30865;51.288;4.572;2023-08-06T14:36:19;17.00;99.90
45104;DHT22;30865;51.288;4.572;2023-08-06T14:38:45;17.10;99.90
45104;DHT22;30865;51.288;4.572;2023-08-06T14:41:10;17.20;99.90
45104;DHT22;30865;51.288;4.572;2023-08-06T14:43:36;17.10;99.90
45104;DHT22;30865;51.288;4.572;2023-08-06T14:46:02;17.10;99.90
45104;DHT22;30865;51.288;4.572;2023-08-06T14:48:29;17.00;99.90
45104;DHT22;30865;51.288;4.572;2023-08-06T14:50:55;17.00;99.90
45104;DHT22;30865;51.288;4.572;2023-08-06T14:53:21;16.70;99.90
45104;DHT22;30865;51.288;4.572;2023-08-06T14:55:46;16.50;99.90
45104;DHT22;30865;51.288;4.572;2023-08-06T14:58:12;16.30;99.90
45104;DHT22;30865;51.288;4.572;2023-08-06T15:00:37;16.30;99.90
45104;DHT22;30865;51.288;4.572;2023-08-06T15:03:03;16.20;99.90
45104;DHT22;30865;51.288;4.572;2023-08-06T15:05:28;16.30;99.90
45104;DHT22;30865;51.288;4.572;2023-08-06T15:07:54;16.20;99.90
45104;DHT22;30865;51.288;4.572;2023-08-06T15:10:19;16.10;99.90
45104;DHT22;30865;51.288;4.572;2023-08-06T15:12:45;16.20;99.90
45104;DHT22;30865;51.288;4.572;2023-08-06T15:15:11;16.10;99.90
45104;DHT22;30865;51.288;4.572;2023-08-06T15:17:36;16.10;99.90
45104;DHT22;30865;51.288;4.572;2023-08-06T15:20:02;16.30;99.90
45104;DHT22;30865;51.288;4.572;2023-08-06T15:22:28;16.50;99.90
45104;DHT22;30865;51.288;4.572;2023-08-06T15:24:57;16.40;99.90
45104;DHT22;30865;51.288;4.572;2023-08-06T15:27:23;16.60;99.90
45104;DHT22;30865;51.288;4.572;2023-08-06T15:29:49;16.80;99.90
45104;DHT22;30865;51.288;4.572;2023-08-06T15:32:14;16.80;99.90
45104;DHT22;30865;51.288;4.572;2023-08-06T15:34:40;16.70;99.90